Azucar — ZCTR4 — position and weather

sailwx.info

Track history (hours):
 
Tides and Currents Weather Stations Pressure Air Temp Water Temp Dewpoint Dewpoint Depression Visibility Wind Speed Wind Dir Waves Ship Positions

Azucar

Last reported at 2015-Jul-30 04:31 UTC. Time now 2015-Jul-30 06:06 UTC.
Position N 41°00' W 072°18'.

Length 40 m; draft 2.1 m.

Type: Pleasure craft. MMSI: 319416000.

Date/timePositionNaut miles runAvg speedWind from/ knotsBaromVisibWave heightAir tempDewpointWater temp
2015-Jul-30 04:31N 41°00' W 072°18'0 0.0
2015-Jul-30 03:31N 41°00' W 072°18'0 0.0
2015-Jul-30 02:31N 41°00' W 072°18'0 0.0
2015-Jul-30 01:33N 41°00' W 072°18'0 0.0
2015-Jul-30 00:31N 41°00' W 072°18'0 0.0
2015-Jul-29 23:31N 41°00' W 072°18'0 0.0
2015-Jul-29 22:31N 41°00' W 072°18'0 0.0
2015-Jul-29 21:31N 41°00' W 072°18'0 0.0
2015-Jul-29 20:31N 41°00' W 072°18'0 0.0
2015-Jul-29 19:34N 41°00' W 072°18'3 2.9
2015-Jul-29 18:31N 41°03' W 072°20'0 0.0
2015-Jul-29 17:31N 41°03' W 072°20'0 0.0
2015-Jul-29 16:28N 41°03' W 072°20'2 2.0
2015-Jul-29 15:33N 41°02' W 072°18'2 1.6
2015-Jul-29 14:32N 41°00' W 072°18'0 0.0
2015-Jul-29 13:31N 41°00' W 072°18'0 0.0
2015-Jul-29 12:32N 41°00' W 072°18'0 0.0
2015-Jul-29 11:29N 41°00' W 072°18'0 0.0
2015-Jul-29 10:31N 41°00' W 072°18'0 0.0
2015-Jul-29 09:31N 41°00' W 072°18'0 0.0
2015-Jul-29 08:31N 41°00' W 072°18'0 0.0
2015-Jul-29 07:31N 41°00' W 072°18'0 0.0
2015-Jul-29 06:31N 41°00' W 072°18'0 0.0
2015-Jul-29 05:31N 41°00' W 072°18'0 0.0
2015-Jul-29 04:31N 41°00' W 072°18'0 0.0
2015-Jul-29 03:31N 41°00' W 072°18'0 0.0
2015-Jul-29 02:31N 41°00' W 072°18'0 0.0
2015-Jul-29 01:31N 41°00' W 072°18'0 0.0
2015-Jul-29 00:31N 41°00' W 072°18'0 0.0
2015-Jul-28 23:31N 41°00' W 072°18'0 0.0
2015-Jul-28 22:31N 41°00' W 072°18'0 0.0
2015-Jul-28 21:31N 41°00' W 072°18'0 0.0
2015-Jul-28 20:33N 41°00' W 072°18'3 3.1
2015-Jul-28 19:33N 41°03' W 072°20'0 0.0
2015-Jul-28 18:33N 41°03' W 072°20'0 0.0
2015-Jul-28 17:33N 41°03' W 072°20'0 0.0
2015-Jul-28 16:33N 41°03' W 072°20'3 3.1
2015-Jul-28 15:33N 41°00' W 072°18'0 0.0
2015-Jul-28 14:33N 41°00' W 072°18'0 0.0
2015-Jul-28 13:33N 41°00' W 072°18'0 0.0
2015-Jul-28 12:33N 41°00' W 072°18'0 0.0
2015-Jul-28 11:33N 41°00' W 072°18'0 0.0
2015-Jul-28 10:33N 41°00' W 072°18'0 0.0
2015-Jul-28 09:33N 41°00' W 072°18'0 0.0
2015-Jul-28 08:30N 41°00' W 072°18'0 0.0
2015-Jul-28 07:30N 41°00' W 072°18'0 0.0
2015-Jul-28 06:33N 41°00' W 072°18'0 0.0
2015-Jul-28 05:33N 41°00' W 072°18'0 0.0
2015-Jul-28 04:33N 41°00' W 072°18'0 0.0
2015-Jul-28 03:33N 41°00' W 072°18'0 0.0
2015-Jul-28 02:33N 41°00' W 072°18'0 0.0
2015-Jul-28 01:33N 41°00' W 072°18'0 0.0
2015-Jul-28 00:33N 41°00' W 072°18'0 0.0
2015-Jul-27 23:33N 41°00' W 072°18'0 0.0
2015-Jul-27 22:33N 41°00' W 072°18'3 3.0
2015-Jul-27 21:32N 41°03' W 072°20'0 0.0
2015-Jul-27 20:32N 41°03' W 072°20'0 0.0
2015-Jul-27 19:32N 41°03' W 072°20'0 0.0
2015-Jul-27 18:32N 41°03' W 072°20'0 0.0
2015-Jul-27 17:32N 41°03' W 072°20'1 1.1
2015-Jul-27 16:34N 41°03' W 072°19'3 2.4
2015-Jul-27 15:31N 41°00' W 072°18'0 0.0
2015-Jul-27 14:31N 41°00' W 072°18'0 0.0
2015-Jul-27 13:19N 41°00' W 072°18'0 0.0
2015-Jul-27 12:31N 41°00' W 072°18'  
2015-Jul-24 12:16N 41°00' W 072°18'0 0.0
2015-Jul-24 11:31N 41°00' W 072°18'0 0.0
2015-Jul-24 10:31N 41°00' W 072°18'0 0.0
2015-Jul-24 09:31N 41°00' W 072°18'0 0.0
2015-Jul-24 08:31N 41°00' W 072°18'0 0.0
2015-Jul-24 07:31N 41°00' W 072°18'0 0.0
2015-Jul-24 06:31N 41°00' W 072°18'0 0.0
2015-Jul-24 05:31N 41°00' W 072°18'0 0.0
2015-Jul-24 04:31N 41°00' W 072°18'0 0.0
2015-Jul-24 03:31N 41°00' W 072°18'0 0.0
2015-Jul-24 02:31N 41°00' W 072°18'0 0.0
2015-Jul-24 01:31N 41°00' W 072°18'0 0.0
2015-Jul-24 00:31N 41°00' W 072°18'0 0.0
2015-Jul-23 23:28N 41°00' W 072°18'0 0.0
2015-Jul-23 22:31N 41°00' W 072°18'0 0.0
2015-Jul-23 21:25N 41°00' W 072°18'0 0.0
2015-Jul-23 20:31N 41°00' W 072°18'0 0.0
2015-Jul-23 19:31N 41°00' W 072°18'0 0.0
2015-Jul-23 18:31N 41°00' W 072°18'0 0.0
2015-Jul-23 17:31N 41°00' W 072°18'0 0.0
2015-Jul-23 16:31N 41°00' W 072°18'0 0.0
2015-Jul-23 15:31N 41°00' W 072°18'0 0.0
2015-Jul-23 14:31N 41°00' W 072°18'0 0.0
2015-Jul-23 13:31N 41°00' W 072°18'0 0.0
2015-Jul-23 12:31N 41°00' W 072°18'0 0.0
2015-Jul-23 11:31N 41°00' W 072°18'0 0.0
2015-Jul-23 10:31N 41°00' W 072°18'0 0.0
2015-Jul-23 09:31N 41°00' W 072°18'0 0.0
2015-Jul-23 08:31N 41°00' W 072°18'0 0.0
2015-Jul-23 07:31N 41°00' W 072°18'0 0.0
2015-Jul-23 06:31N 41°00' W 072°18'0 0.0
2015-Jul-23 05:31N 41°00' W 072°18'0 0.0
2015-Jul-23 04:31N 41°00' W 072°18'0 0.0
2015-Jul-23 03:31N 41°00' W 072°18'0 0.0
2015-Jul-23 02:31N 41°00' W 072°18'0 0.0
2015-Jul-23 01:31N 41°00' W 072°18'0 0.0
2015-Jul-23 00:31N 41°00' W 072°18'0 0.0
2015-Jul-22 23:31N 41°00' W 072°18'0 0.0
2015-Jul-22 22:31N 41°00' W 072°18'0 0.0
2015-Jul-22 21:31N 41°00' W 072°18'0 0.0
2015-Jul-22 20:31N 41°00' W 072°18'0 0.0
2015-Jul-22 19:31N 41°00' W 072°18'0 0.0
2015-Jul-22 18:31N 41°00' W 072°18'0 0.0
2015-Jul-22 17:31N 41°00' W 072°18'0 0.0
2015-Jul-22 16:31N 41°00' W 072°18'0 0.0
2015-Jul-22 15:31N 41°00' W 072°18'0 0.0
2015-Jul-22 14:31N 41°00' W 072°18'0 0.0
2015-Jul-22 13:31N 41°00' W 072°18'0 0.0
2015-Jul-22 12:31N 41°00' W 072°18'0 0.0
2015-Jul-22 11:31N 41°00' W 072°18'0 0.0
2015-Jul-22 10:31N 41°00' W 072°18'0 0.0
2015-Jul-22 09:31N 41°00' W 072°18'0 0.0
2015-Jul-22 08:31N 41°00' W 072°18'0 0.0
2015-Jul-22 07:28N 41°00' W 072°18'0 0.0
2015-Jul-22 06:31N 41°00' W 072°18'0 0.0
2015-Jul-22 05:31N 41°00' W 072°18'0 0.0
2015-Jul-22 04:31N 41°00' W 072°18'0 0.0
2015-Jul-22 03:31N 41°00' W 072°18'0 0.0
2015-Jul-22 02:31N 41°00' W 072°18'0 0.0
2015-Jul-22 01:28N 41°00' W 072°18'0 0.0
2015-Jul-22 00:31N 41°00' W 072°18'0 0.0
2015-Jul-21 23:31N 41°00' W 072°18'0 0.0
2015-Jul-21 22:25N 41°00' W 072°18'0 0.0
2015-Jul-21 21:31N 41°00' W 072°18'0 0.0
2015-Jul-21 20:31N 41°00' W 072°18'0 0.0
2015-Jul-21 19:31N 41°00' W 072°18'0 0.0
2015-Jul-21 18:31N 41°00' W 072°18'0 0.0
2015-Jul-21 17:31N 41°00' W 072°18'0 0.0
2015-Jul-21 16:31N 41°00' W 072°18'0 0.0
2015-Jul-21 15:31N 41°00' W 072°18'0 0.0
2015-Jul-21 14:31N 41°00' W 072°18'0 0.0
2015-Jul-21 13:31N 41°00' W 072°18'0 0.0
2015-Jul-21 12:31N 41°00' W 072°18'0 0.0
2015-Jul-21 11:29N 41°00' W 072°18'0 0.0
2015-Jul-21 10:28N 41°00' W 072°18'0 0.0
2015-Jul-21 09:31N 41°00' W 072°18'0 0.0
2015-Jul-21 08:31N 41°00' W 072°18'0 0.0
2015-Jul-21 07:31N 41°00' W 072°18'0 0.0
2015-Jul-21 06:31N 41°00' W 072°18'0 0.0
2015-Jul-21 05:31N 41°00' W 072°18'0 0.0
2015-Jul-21 04:31N 41°00' W 072°18'0 0.0
2015-Jul-21 03:31N 41°00' W 072°18'0 0.0
2015-Jul-21 02:31N 41°00' W 072°18'0 0.0
2015-Jul-21 01:31N 41°00' W 072°18'0 0.0
2015-Jul-21 00:28N 41°00' W 072°18'0 0.0
2015-Jul-20 23:31N 41°00' W 072°18'0 0.0
2015-Jul-20 22:31N 41°00' W 072°18'0 0.0
2015-Jul-20 21:31N 41°00' W 072°18'0 0.0
2015-Jul-20 20:31N 41°00' W 072°18'0 0.0
2015-Jul-20 19:31N 41°00' W 072°18'0 0.0
2015-Jul-20 18:31N 41°00' W 072°18'0 0.0
2015-Jul-20 17:31N 41°00' W 072°18'0 0.0
2015-Jul-20 16:31N 41°00' W 072°18'0 0.0
2015-Jul-20 15:31N 41°00' W 072°18'0 0.0
2015-Jul-20 14:31N 41°00' W 072°18'0 0.0
2015-Jul-20 13:31N 41°00' W 072°18'0 0.0
2015-Jul-20 12:31N 41°00' W 072°18'  
Track history (hours):
 
Tides and Currents Weather Stations Pressure Air Temp Water Temp Dewpoint Dewpoint Depression Visibility Wind Speed Wind Dir Waves Ship Positions

Azucar

Last reported at 2015-Jul-30 04:31 UTC. Time now 2015-Jul-30 06:06 UTC.
Position N 41°00' W 072°18'.

Length 40 m; draft 2.1 m.

Type: Pleasure craft. MMSI: 319416000.

Date/timePositionNaut miles runAvg speedWind from/ knotsBaromVisibWave heightAir tempDewpointWater temp
2015-Jul-30 04:31N 41°00' W 072°18'0 0.0
2015-Jul-30 03:31N 41°00' W 072°18'0 0.0
2015-Jul-30 02:31N 41°00' W 072°18'0 0.0
2015-Jul-30 01:33N 41°00' W 072°18'0 0.0
2015-Jul-30 00:31N 41°00' W 072°18'0 0.0
2015-Jul-29 23:31N 41°00' W 072°18'0 0.0
2015-Jul-29 22:31N 41°00' W 072°18'0 0.0
2015-Jul-29 21:31N 41°00' W 072°18'0 0.0
2015-Jul-29 20:31N 41°00' W 072°18'0 0.0
2015-Jul-29 19:34N 41°00' W 072°18'3 2.9
2015-Jul-29 18:31N 41°03' W 072°20'0 0.0
2015-Jul-29 17:31N 41°03' W 072°20'0 0.0
2015-Jul-29 16:28N 41°03' W 072°20'2 2.0
2015-Jul-29 15:33N 41°02' W 072°18'2 1.6
2015-Jul-29 14:32N 41°00' W 072°18'0 0.0
2015-Jul-29 13:31N 41°00' W 072°18'0 0.0
2015-Jul-29 12:32N 41°00' W 072°18'0 0.0
2015-Jul-29 11:29N 41°00' W 072°18'0 0.0
2015-Jul-29 10:31N 41°00' W 072°18'0 0.0
2015-Jul-29 09:31N 41°00' W 072°18'0 0.0
2015-Jul-29 08:31N 41°00' W 072°18'0 0.0
2015-Jul-29 07:31N 41°00' W 072°18'0 0.0
2015-Jul-29 06:31N 41°00' W 072°18'0 0.0
2015-Jul-29 05:31N 41°00' W 072°18'0 0.0
2015-Jul-29 04:31N 41°00' W 072°18'0 0.0
2015-Jul-29 03:31N 41°00' W 072°18'0 0.0
2015-Jul-29 02:31N 41°00' W 072°18'0 0.0
2015-Jul-29 01:31N 41°00' W 072°18'0 0.0
2015-Jul-29 00:31N 41°00' W 072°18'0 0.0
2015-Jul-28 23:31N 41°00' W 072°18'0 0.0
2015-Jul-28 22:31N 41°00' W 072°18'0 0.0
2015-Jul-28 21:31N 41°00' W 072°18'0 0.0
2015-Jul-28 20:33N 41°00' W 072°18'3 3.1
2015-Jul-28 19:33N 41°03' W 072°20'0 0.0
2015-Jul-28 18:33N 41°03' W 072°20'0 0.0
2015-Jul-28 17:33N 41°03' W 072°20'0 0.0
2015-Jul-28 16:33N 41°03' W 072°20'3 3.1
2015-Jul-28 15:33N 41°00' W 072°18'0 0.0
2015-Jul-28 14:33N 41°00' W 072°18'0 0.0
2015-Jul-28 13:33N 41°00' W 072°18'0 0.0
2015-Jul-28 12:33N 41°00' W 072°18'0 0.0
2015-Jul-28 11:33N 41°00' W 072°18'0 0.0
2015-Jul-28 10:33N 41°00' W 072°18'0 0.0
2015-Jul-28 09:33N 41°00' W 072°18'0 0.0
2015-Jul-28 08:30N 41°00' W 072°18'0 0.0
2015-Jul-28 07:30N 41°00' W 072°18'0 0.0
2015-Jul-28 06:33N 41°00' W 072°18'0 0.0
2015-Jul-28 05:33N 41°00' W 072°18'0 0.0
2015-Jul-28 04:33N 41°00' W 072°18'0 0.0
2015-Jul-28 03:33N 41°00' W 072°18'0 0.0
2015-Jul-28 02:33N 41°00' W 072°18'0 0.0
2015-Jul-28 01:33N 41°00' W 072°18'0 0.0
2015-Jul-28 00:33N 41°00' W 072°18'0 0.0
2015-Jul-27 23:33N 41°00' W 072°18'0 0.0
2015-Jul-27 22:33N 41°00' W 072°18'3 3.0
2015-Jul-27 21:32N 41°03' W 072°20'0 0.0
2015-Jul-27 20:32N 41°03' W 072°20'0 0.0
2015-Jul-27 19:32N 41°03' W 072°20'0 0.0
2015-Jul-27 18:32N 41°03' W 072°20'0 0.0
2015-Jul-27 17:32N 41°03' W 072°20'1 1.1
2015-Jul-27 16:34N 41°03' W 072°19'3 2.4
2015-Jul-27 15:31N 41°00' W 072°18'0 0.0
2015-Jul-27 14:31N 41°00' W 072°18'0 0.0
2015-Jul-27 13:19N 41°00' W 072°18'0 0.0
2015-Jul-27 12:31N 41°00' W 072°18'  
2015-Jul-24 12:16N 41°00' W 072°18'0 0.0
2015-Jul-24 11:31N 41°00' W 072°18'0 0.0
2015-Jul-24 10:31N 41°00' W 072°18'0 0.0
2015-Jul-24 09:31N 41°00' W 072°18'0 0.0
2015-Jul-24 08:31N 41°00' W 072°18'0 0.0
2015-Jul-24 07:31N 41°00' W 072°18'0 0.0
2015-Jul-24 06:31N 41°00' W 072°18'0 0.0
2015-Jul-24 05:31N 41°00' W 072°18'0 0.0
2015-Jul-24 04:31N 41°00' W 072°18'0 0.0
2015-Jul-24 03:31N 41°00' W 072°18'0 0.0
2015-Jul-24 02:31N 41°00' W 072°18'0 0.0
2015-Jul-24 01:31N 41°00' W 072°18'0 0.0
2015-Jul-24 00:31N 41°00' W 072°18'0 0.0
2015-Jul-23 23:28N 41°00' W 072°18'0 0.0
2015-Jul-23 22:31N 41°00' W 072°18'0 0.0
2015-Jul-23 21:25N 41°00' W 072°18'0 0.0
2015-Jul-23 20:31N 41°00' W 072°18'0 0.0
2015-Jul-23 19:31N 41°00' W 072°18'0 0.0
2015-Jul-23 18:31N 41°00' W 072°18'0 0.0
2015-Jul-23 17:31N 41°00' W 072°18'0 0.0
2015-Jul-23 16:31N 41°00' W 072°18'0 0.0
2015-Jul-23 15:31N 41°00' W 072°18'0 0.0
2015-Jul-23 14:31N 41°00' W 072°18'0 0.0
2015-Jul-23 13:31N 41°00' W 072°18'0 0.0
2015-Jul-23 12:31N 41°00' W 072°18'0 0.0
2015-Jul-23 11:31N 41°00' W 072°18'0 0.0
2015-Jul-23 10:31N 41°00' W 072°18'0 0.0
2015-Jul-23 09:31N 41°00' W 072°18'0 0.0
2015-Jul-23 08:31N 41°00' W 072°18'0 0.0
2015-Jul-23 07:31N 41°00' W 072°18'0 0.0
2015-Jul-23 06:31N 41°00' W 072°18'0 0.0
2015-Jul-23 05:31N 41°00' W 072°18'0 0.0
2015-Jul-23 04:31N 41°00' W 072°18'0 0.0
2015-Jul-23 03:31N 41°00' W 072°18'0 0.0
2015-Jul-23 02:31N 41°00' W 072°18'0 0.0
2015-Jul-23 01:31N 41°00' W 072°18'0 0.0
2015-Jul-23 00:31N 41°00' W 072°18'0 0.0
2015-Jul-22 23:31N 41°00' W 072°18'0 0.0
2015-Jul-22 22:31N 41°00' W 072°18'0 0.0
2015-Jul-22 21:31N 41°00' W 072°18'0 0.0
2015-Jul-22 20:31N 41°00' W 072°18'0 0.0
2015-Jul-22 19:31N 41°00' W 072°18'0 0.0
2015-Jul-22 18:31N 41°00' W 072°18'0 0.0
2015-Jul-22 17:31N 41°00' W 072°18'0 0.0
2015-Jul-22 16:31N 41°00' W 072°18'0 0.0
2015-Jul-22 15:31N 41°00' W 072°18'0 0.0
2015-Jul-22 14:31N 41°00' W 072°18'0 0.0
2015-Jul-22 13:31N 41°00' W 072°18'0 0.0
2015-Jul-22 12:31N 41°00' W 072°18'0 0.0
2015-Jul-22 11:31N 41°00' W 072°18'0 0.0
2015-Jul-22 10:31N 41°00' W 072°18'0 0.0
2015-Jul-22 09:31N 41°00' W 072°18'0 0.0
2015-Jul-22 08:31N 41°00' W 072°18'0 0.0
2015-Jul-22 07:28N 41°00' W 072°18'0 0.0
2015-Jul-22 06:31N 41°00' W 072°18'0 0.0
2015-Jul-22 05:31N 41°00' W 072°18'0 0.0
2015-Jul-22 04:31N 41°00' W 072°18'0 0.0
2015-Jul-22 03:31N 41°00' W 072°18'0 0.0
2015-Jul-22 02:31N 41°00' W 072°18'0 0.0
2015-Jul-22 01:28N 41°00' W 072°18'0 0.0
2015-Jul-22 00:31N 41°00' W 072°18'0 0.0
2015-Jul-21 23:31N 41°00' W 072°18'0 0.0
2015-Jul-21 22:25N 41°00' W 072°18'0 0.0
2015-Jul-21 21:31N 41°00' W 072°18'0 0.0
2015-Jul-21 20:31N 41°00' W 072°18'0 0.0
2015-Jul-21 19:31N 41°00' W 072°18'0 0.0
2015-Jul-21 18:31N 41°00' W 072°18'0 0.0
2015-Jul-21 17:31N 41°00' W 072°18'0 0.0
2015-Jul-21 16:31N 41°00' W 072°18'0 0.0
2015-Jul-21 15:31N 41°00' W 072°18'0 0.0
2015-Jul-21 14:31N 41°00' W 072°18'0 0.0
2015-Jul-21 13:31N 41°00' W 072°18'0 0.0
2015-Jul-21 12:31N 41°00' W 072°18'0 0.0
2015-Jul-21 11:29N 41°00' W 072°18'0 0.0
2015-Jul-21 10:28N 41°00' W 072°18'0 0.0
2015-Jul-21 09:31N 41°00' W 072°18'0 0.0
2015-Jul-21 08:31N 41°00' W 072°18'0 0.0
2015-Jul-21 07:31N 41°00' W 072°18'0 0.0
2015-Jul-21 06:31N 41°00' W 072°18'0 0.0
2015-Jul-21 05:31N 41°00' W 072°18'0 0.0
2015-Jul-21 04:31N 41°00' W 072°18'0 0.0
2015-Jul-21 03:31N 41°00' W 072°18'0 0.0
2015-Jul-21 02:31N 41°00' W 072°18'0 0.0
2015-Jul-21 01:31N 41°00' W 072°18'0 0.0
2015-Jul-21 00:28N 41°00' W 072°18'0 0.0
2015-Jul-20 23:31N 41°00' W 072°18'0 0.0
2015-Jul-20 22:31N 41°00' W 072°18'0 0.0
2015-Jul-20 21:31N 41°00' W 072°18'0 0.0
2015-Jul-20 20:31N 41°00' W 072°18'0 0.0
2015-Jul-20 19:31N 41°00' W 072°18'0 0.0
2015-Jul-20 18:31N 41°00' W 072°18'0 0.0
2015-Jul-20 17:31N 41°00' W 072°18'0 0.0
2015-Jul-20 16:31N 41°00' W 072°18'0 0.0
2015-Jul-20 15:31N 41°00' W 072°18'0 0.0
2015-Jul-20 14:31N 41°00' W 072°18'0 0.0
2015-Jul-20 13:31N 41°00' W 072°18'0 0.0
2015-Jul-20 12:31N 41°00' W 072°18'  

Dump ship's entire track history